ACA417 CYUL-CYYZ
Flight info
| Callsign | ACA417 |
|---|---|
| Flight time | N/A |
| Altitude | 30000 |
| Route | BOBKI DCT MELTI DCT TORNI RAGID6 |
| Aircraft | A320/M-SDE3FGHIRWY/LB1 |
Departure
| Time | 2026-04-30 22:47 |
|---|---|
| Airport | Montreal / Pierre Elliott Trudeau International Airport (CYUL) |
Arrival
| Time | N/A |
|---|---|
| Airport | Toronto Pearson International Airport (CYYZ) |
| Time | Latitude | Longitude | Altitude | Speed | Heading |
|---|---|---|---|---|---|
| 2026-04-30 21:44 | 45.45929 | -73.74952 | 105 ft | 0 kts | 178° |
| 2026-04-30 22:30 | 45.45947 | -73.74953 | 104 ft | 4 kts | 177° |
| 2026-04-30 22:31 | 45.45997 | -73.74999 | 103 ft | 0 kts | 117° |
| 2026-04-30 22:37 | 45.45981 | -73.74947 | 104 ft | 4 kts | 103° |
| 2026-04-30 22:38 | 45.45981 | -73.74873 | 105 ft | 3 kts | 87° |
| 2026-04-30 22:38 | 45.45976 | -73.74761 | 105 ft | 9 kts | 110° |
| 2026-04-30 22:39 | 45.45957 | -73.74674 | 105 ft | 9 kts | 102° |
| 2026-04-30 22:39 | 45.45993 | -73.74432 | 104 ft | 10 kts | 70° |
| 2026-04-30 22:40 | 45.46058 | -73.74163 | 103 ft | 14 kts | 42° |
| 2026-04-30 22:41 | 45.46346 | -73.73786 | 107 ft | 23 kts | 42° |
| 2026-04-30 22:41 | 45.46608 | -73.73442 | 109 ft | 25 kts | 43° |
| 2026-04-30 22:42 | 45.47184 | -73.72690 | 117 ft | 29 kts | 41° |
| 2026-04-30 22:43 | 45.47487 | -73.72291 | 117 ft | 22 kts | 43° |
| 2026-04-30 22:43 | 45.47693 | -73.72020 | 121 ft | 22 kts | 42° |
| 2026-04-30 22:44 | 45.47856 | -73.71809 | 120 ft | 10 kts | 42° |
| 2026-04-30 22:45 | 45.47748 | -73.71552 | 125 ft | 6 kts | 186° |
| 2026-04-30 22:45 | 45.47720 | -73.71581 | 121 ft | 0 kts | 223° |
| 2026-04-30 22:46 | 45.47315 | -73.72114 | 120 ft | 106 kts | 223° |
| 2026-04-30 22:47 | 45.44212 | -73.76329 | 2093 ft | 168 kts | 228° |
| 2026-04-30 22:47 | 45.42299 | -73.78921 | 2748 ft | 215 kts | 227° |
| 2026-04-30 22:48 | 45.40448 | -73.82648 | 3859 ft | 246 kts | 262° |
| 2026-04-30 22:49 | 45.40519 | -73.90045 | 6679 ft | 254 kts | 272° |
| 2026-04-30 22:49 | 45.40714 | -73.97744 | 9243 ft | 268 kts | 271° |
| 2026-04-30 22:50 | 45.40966 | -74.09315 | 11546 ft | 318 kts | 270° |
| 2026-04-30 22:51 | 45.41107 | -74.15677 | 13097 ft | 326 kts | 270° |
| 2026-04-30 22:51 | 45.41251 | -74.22206 | 14489 ft | 335 kts | 269° |
| 2026-04-30 22:52 | 45.41321 | -74.25491 | 15115 ft | 339 kts | 269° |
| 2026-04-30 22:52 | 45.41457 | -74.32282 | 16433 ft | 347 kts | 268° |
| 2026-04-30 22:53 | 45.41596 | -74.39224 | 17746 ft | 354 kts | 268° |
| 2026-04-30 22:53 | 45.41136 | -74.46190 | 18895 ft | 356 kts | 253° |
| 2026-04-30 22:53 | 45.40554 | -74.49633 | 19465 ft | 359 kts | 252° |
| 2026-04-30 22:54 | 45.39386 | -74.56555 | 20579 ft | 366 kts | 252° |
| 2026-04-30 22:55 | 45.37590 | -74.67257 | 22240 ft | 376 kts | 252° |
| 2026-04-30 22:55 | 45.36362 | -74.74560 | 23366 ft | 383 kts | 252° |
| 2026-04-30 22:56 | 45.35104 | -74.81977 | 24292 ft | 388 kts | 252° |
| 2026-04-30 22:56 | 45.33187 | -74.93196 | 25617 ft | 395 kts | 252° |
| 2026-04-30 22:57 | 45.31879 | -75.00818 | 26435 ft | 399 kts | 252° |
| 2026-04-30 22:57 | 45.30546 | -75.08533 | 27208 ft | 404 kts | 252° |
| 2026-04-30 22:58 | 45.29190 | -75.16328 | 27972 ft | 409 kts | 252° |
| 2026-04-30 22:59 | 45.27128 | -75.28124 | 29125 ft | 415 kts | 252° |
| 2026-04-30 22:59 | 45.25014 | -75.40137 | 29898 ft | 415 kts | 252° |